Pagrindinis puslapis
METAR-TAF:

METAR-TAF

Oro uostai :

Doha, Kataras

platuma: 25-16-23N, ilguma: 51-36-29E, Aukštis: 4 m

Dabartinis oras

Ataskaita buvo paskelbta 34 minutes, ne 22:00 UTC
Vėjas 16 kt iš Šiaurės Vakarų
Temperatūra 34°C
Drėgmė 36%
Slėgis 1000 hPa
Matomumas 10 km arba daugiau
nėra debesų žemiau 1500 m ir nėra kamuolinių lietaus debesų

METAR: OTHH 052200Z AUTO 32016KT CAVOK 34/17 Q1000 NOSIG

Laikas: 01:34 (22:34 UTC)

Prognozė

Ataskaita buvo paskelbta 5 valandos ir 31 minutes, ne 17:03 UTC
Prognozė galioja nuo 05 metu 18 UTC su 06 metu 24 UTC
Vėjas 15 kt iš Šiaurės Vakarų
Matomumas 10 km arba daugiau
nėra debesų žemiau 1500 m ir nėra kamuolinių lietaus debesų
Laikinai
nuo 06 metu 03 UTC su 06 metu 18 UTC
Vėjas 15 kt iš Šiaurės su gūsio iki 25 kt
Matomumas: 7000 m
Tikimybė 30% :
Laikinai
nuo 06 metu 06 UTC su 06 metu 12 UTC
Matomumas: 4000 m
Dulkes pustymas

TAF: OTHH 051703Z 0518/0624 32015KT CAVOK TEMPO 0603/0618 35015G25KT 7000 PROB30 TEMPO 0606/0612 4000 BLDU

Orai ataskaitas ir orų prognozės (METAR, TAF).

turimą stotys yra geltonos ir raudonos taškus žemėlapyje.

Perkelti pele per norėdami pamatyti stoties vardą.

Tada spustelėkite, norėdami matyti oro stebėjimo ir prognozės.

Norėdami pakeisti žemėlapį: spustelėkite ant žalios mygtukų su juodo kryžiaus žemyn,; žalią mygtuką su brūkšneliu, jei norite nutolinti; arba žalių rodyklių gretimoms žemėlapius.


METAR-TAF: